Aeroporto :
LOGIN :

Iscrizione | Disclaimer

   EN    FR    IT 

 










Sommario :    VFR   VFR Marginale   IFR   IFR Intensivo   IFR Molto Intensivo
Visibilità : 
Base nubi : 
>= 8 km
>= 3000ft
5 / 8 km
1000 / 3000 ft
1500m / 5 km
500 / 1000 ft
800 / 1500m
200 / 500 ft
< 800m
< 200 ft
Simboli :   Temporali  Nebbia  Neve Forte  Precipitazioni Forti  Vento > 20 kt
SIGMETs :   Varie  Temporali  Ghiacco  Turbolenza  Onda orograficha  Ceneri Vulcaniche







- Altitudine del aeroporto : 82 ft
- Codice IATA : QIE
- Carte del aeroporto


LFMI - Istres

ULTIMO METAR :
  • 232000Z AUTO 14004KT CAVOK 23/20 Q1019 NOSIG

METARs OBSOLETI :
  • 231930Z AUTO 14005KT CAVOK 24/19 Q1019 NOSIG
  • 231900Z AUTO 13005KT CAVOK 24/19 Q1018 NOSIG
  • 231830Z AUTO 15006KT CAVOK 25/19 Q1018 NOSIG
  • 231800Z AUTO 16005KT CAVOK 26/19 Q1018 NOSIG
  • 231730Z AUTO 16008KT CAVOK 26/18 Q1018 NOSIG

TAF TAF LFMI
Valido dal 23 a 15 ore il 24 a 15 ore UTC


231400Z 2315/2415 18010KT CAVOK
BECMG 2317/2319 VRB05KT
BECMG 2411/2412 22010KT
Nessun NOTAM noto per questo aeroporto.



MetMap, La meteo Aeronautica in un colpo d'occhio ! - Copyright ORBIFLY Dicembre 2007 - Disclaimer

ORBIFLY MET'MAP TEAM :

Programmazione e sviluppo : Alexandra Zaïnal
Concezione e sviluppo : Baudouin d'Aumeries
Co-Programmazione e sviluppo : Marc-Olivier Méhu
Supporto tecnico e logistico : Manuel Goepfert
Aiuto per la traduzione : Arnaldo La Scala

Contatto : metmap@orbifly.com




FONTI E CREDITI :

   NOAA